createdAt,value
2018-04-24T04:00:18.915Z,49.10
2018-04-24T04:02:45.664Z,49.10
2018-04-24T04:05:12.715Z,49.10
2018-04-24T04:07:39.516Z,47.30
2018-04-24T04:10:06.048Z,46.70
2018-04-24T04:12:33.876Z,46.40
2018-04-24T04:15:00.929Z,45.80
2018-04-24T04:17:27.673Z,45.50
2018-04-24T04:19:54.419Z,45.10
2018-04-24T04:22:20.855Z,45.20
2018-04-24T04:24:47.604Z,44.80
2018-04-24T04:27:14.351Z,44.40
2018-04-24T04:29:41.127Z,44.50
2018-04-24T04:32:07.841Z,44.60
2018-04-24T04:34:34.600Z,44.70
2018-04-24T04:37:01.029Z,44.90
2018-04-24T04:39:27.775Z,44.50
2018-04-24T04:41:54.521Z,44.70
2018-04-24T04:44:20.816Z,44.50
2018-04-24T04:46:47.128Z,44.40
2018-04-24T04:49:13.533Z,44.50
2018-04-24T04:51:39.808Z,44.10
2018-04-24T04:54:06.416Z,44.50
2018-04-24T04:56:33.159Z,44.50
2018-04-24T04:58:59.905Z,44.90
2018-04-24T05:01:26.652Z,44.90
2018-04-24T05:03:53.086Z,45.00
2018-04-24T05:06:19.835Z,44.80
2018-04-24T05:08:46.127Z,44.60
2018-04-24T05:11:13.184Z,44.90
2018-04-24T05:13:39.774Z,45.00
2018-04-24T05:16:06.514Z,45.60
2018-04-24T05:18:33.100Z,45.00
2018-04-24T05:20:59.700Z,45.20
2018-04-24T05:23:26.453Z,45.20
2018-04-24T05:25:53.533Z,45.30
2018-04-24T05:28:20.849Z,45.30
2018-04-24T05:30:47.605Z,45.40
2018-04-24T05:33:14.926Z,45.40
2018-04-24T05:35:41.630Z,46.10
2018-04-24T05:38:08.152Z,45.50
2018-04-24T05:40:34.749Z,45.50
2018-04-24T05:43:01.812Z,45.60
2018-04-24T05:45:29.307Z,45.20
2018-04-24T05:47:56.057Z,45.60
2018-04-24T05:50:22.343Z,45.70
2018-04-24T05:52:48.937Z,45.70
2018-04-24T05:55:15.687Z,45.70
2018-04-24T05:57:42.428Z,45.90
2018-04-24T06:00:09.171Z,45.90
2018-04-24T06:02:35.943Z,45.90
2018-04-24T06:05:02.646Z,45.90
2018-04-24T06:07:29.510Z,45.90
2018-04-24T06:09:56.158Z,46.00
2018-04-24T06:12:22.906Z,45.90
2018-04-24T06:14:49.759Z,46.00
2018-04-24T06:17:16.064Z,46.00
2018-04-24T06:19:42.834Z,46.00
2018-04-24T06:22:09.886Z,46.00
2018-04-24T06:24:36.491Z,46.00
2018-04-24T06:27:02.824Z,46.00
2018-04-24T06:29:29.516Z,46.10
2018-04-24T06:31:56.874Z,46.10
2018-04-24T06:34:23.617Z,46.10
2018-04-24T06:36:50.448Z,46.10
2018-04-24T06:39:17.296Z,46.10
2018-04-24T06:41:45.340Z,46.20
2018-04-24T06:44:11.617Z,46.10
2018-04-24T06:46:38.272Z,46.20
2018-04-24T06:49:04.860Z,46.20
2018-04-24T06:51:31.734Z,46.20
2018-04-24T06:53:58.204Z,46.20
2018-04-24T06:56:24.957Z,46.20
2018-04-24T06:58:51.828Z,46.20
2018-04-24T07:01:18.284Z,46.20
2018-04-24T07:03:45.501Z,46.30
2018-04-24T07:06:11.951Z,46.30
2018-04-24T07:08:38.532Z,46.40
2018-04-24T07:11:05.121Z,46.40
2018-04-24T07:13:31.388Z,46.30
2018-04-24T07:15:57.997Z,46.40
2018-04-24T07:18:24.281Z,46.40
2018-04-24T07:20:51.172Z,46.40
2018-04-24T07:23:17.474Z,46.40
2018-04-24T07:25:44.065Z,46.50
2018-04-24T07:28:10.807Z,46.50
2018-04-24T07:30:37.246Z,46.50
2018-04-24T07:33:03.996Z,46.40
2018-04-24T07:35:30.742Z,46.50
2018-04-24T07:37:57.341Z,46.50
2018-04-24T07:40:24.542Z,46.50
2018-04-24T07:42:51.294Z,46.50
2018-04-24T07:45:18.049Z,46.50
2018-04-24T07:47:44.620Z,46.40
2018-04-24T07:50:11.229Z,46.60
2018-04-24T07:52:38.134Z,46.50
2018-04-24T07:55:04.568Z,46.60
2018-04-24T07:57:31.170Z,46.60
2018-04-24T07:59:58.132Z,46.60
2018-04-24T08:02:25.314Z,46.60
2018-04-24T08:04:51.853Z,46.60
2018-04-24T08:07:19.127Z,46.60
2018-04-24T08:09:45.983Z,46.60
2018-04-24T08:12:13.161Z,46.70
2018-04-24T08:14:39.439Z,46.60
2018-04-24T08:17:06.047Z,46.60
2018-04-24T08:19:33.096Z,46.60
2018-04-24T08:21:59.531Z,46.60
2018-04-24T08:24:25.973Z,46.60
2018-04-24T08:26:52.719Z,46.70
2018-04-24T08:29:19.466Z,46.60
2018-04-24T08:31:46.149Z,46.60
2018-04-24T08:34:12.504Z,46.70
2018-04-24T08:36:39.092Z,46.60
2018-04-24T08:39:05.861Z,46.60
2018-04-24T08:41:32.424Z,46.70
2018-04-24T08:43:59.292Z,46.70
2018-04-24T08:46:26.163Z,46.70
2018-04-24T08:48:52.822Z,46.70
2018-04-24T08:51:19.569Z,46.70
2018-04-24T08:53:46.315Z,46.70
2018-04-24T08:56:12.600Z,46.70
2018-04-24T08:58:39.750Z,46.70
2018-04-24T09:01:06.390Z,46.70
2018-04-24T09:03:32.987Z,46.70
2018-04-24T09:05:59.586Z,46.70
2018-04-24T09:08:26.968Z,46.70
2018-04-24T09:10:54.077Z,46.70
2018-04-24T09:13:20.436Z,46.70
2018-04-24T09:15:47.034Z,46.70
2018-04-24T09:18:14.085Z,46.70
2018-04-24T09:20:40.673Z,46.70
2018-04-24T09:23:07.268Z,46.70
2018-04-24T09:25:33.876Z,46.70
2018-04-24T09:28:00.457Z,46.70
2018-04-24T09:30:27.693Z,46.80
2018-04-24T09:32:55.289Z,46.70
2018-04-24T09:35:22.485Z,46.70
2018-04-24T09:37:48.978Z,46.70
2018-04-24T09:40:15.918Z,46.70
2018-04-24T09:42:42.469Z,46.70
2018-04-24T09:45:09.212Z,46.70
2018-04-24T09:47:35.955Z,46.70
2018-04-24T09:50:02.397Z,46.70
2018-04-24T09:52:29.362Z,46.70
2018-04-24T09:54:55.889Z,46.70
2018-04-24T09:57:22.160Z,46.70
2018-04-24T09:59:49.509Z,46.80
2018-04-24T10:02:16.196Z,46.70
2018-04-24T10:04:42.728Z,46.70
2018-04-24T10:07:09.165Z,46.80
2018-04-24T10:09:35.760Z,46.70
2018-04-24T10:12:02.500Z,46.70
2018-04-24T10:14:29.248Z,46.80
2018-04-24T10:16:55.840Z,46.70
2018-04-24T10:19:22.152Z,46.70
2018-04-24T10:21:48.876Z,46.70
2018-04-24T10:24:16.177Z,46.80
2018-04-24T10:26:42.802Z,46.70
2018-04-24T10:29:09.268Z,46.70
2018-04-24T10:31:36.139Z,46.70
2018-04-24T10:34:02.443Z,46.80
2018-04-24T10:36:29.768Z,46.70
2018-04-24T10:38:56.236Z,46.70
2018-04-24T10:41:22.842Z,46.70
2018-04-24T10:43:49.458Z,46.70
2018-04-24T10:46:16.030Z,46.70
2018-04-24T10:48:42.985Z,46.70
2018-04-24T10:51:09.256Z,46.60
2018-04-24T10:53:35.816Z,46.60
2018-04-24T10:56:02.311Z,46.40
2018-04-24T10:58:28.864Z,46.20
2018-04-24T11:00:55.586Z,46.50
2018-04-24T11:03:22.916Z,46.20
2018-04-24T11:05:49.383Z,46.00
2018-04-24T11:08:15.976Z,46.10
2018-04-24T11:10:42.849Z,46.00
2018-04-24T11:13:09.314Z,46.10
2018-04-24T11:15:36.147Z,46.20
2018-04-24T11:18:02.665Z,46.20
2018-04-24T11:20:29.244Z,46.00
2018-04-24T11:22:56.099Z,46.10
2018-04-24T11:25:22.742Z,46.20
2018-04-24T11:27:49.486Z,46.20
2018-04-24T11:30:16.277Z,46.30
2018-04-24T11:32:42.978Z,46.20
2018-04-24T11:35:09.724Z,46.30
2018-04-24T11:37:36.689Z,46.40
2018-04-24T11:40:03.067Z,46.30
2018-04-24T11:42:29.791Z,46.30
2018-04-24T11:44:56.408Z,46.30
2018-04-24T11:47:23.153Z,46.10
2018-04-24T11:49:50.128Z,46.10
2018-04-24T11:52:16.814Z,46.00
2018-04-24T11:54:44.307Z,46.20
2018-04-24T11:57:11.152Z,46.10
2018-04-24T11:59:38.016Z,46.30
2018-04-24T12:02:04.884Z,46.20
2018-04-24T12:04:31.440Z,46.20
2018-04-24T12:06:58.957Z,46.70
2018-04-24T12:09:25.703Z,46.40
2018-04-24T12:11:52.450Z,46.40
2018-04-24T12:14:19.201Z,46.10
2018-04-24T12:16:45.946Z,46.20
2018-04-24T12:19:12.236Z,46.90
2018-04-24T12:21:38.668Z,46.40
2018-04-24T12:24:05.574Z,46.40
2018-04-24T12:26:32.318Z,46.40
2018-04-24T12:28:59.148Z,46.40
2018-04-24T12:31:25.650Z,46.50
2018-04-24T12:33:52.517Z,46.40
2018-04-24T12:36:19.924Z,47.00
2018-04-24T12:38:46.847Z,46.40
2018-04-24T12:41:13.412Z,46.50
2018-04-24T12:43:40.303Z,46.50
2018-04-24T12:46:06.634Z,46.50
2018-04-24T12:48:33.341Z,46.60
2018-04-24T12:50:59.607Z,46.60
2018-04-24T12:53:26.829Z,46.60
2018-04-24T12:55:53.578Z,46.60
2018-04-24T12:58:20.015Z,46.50
2018-04-24T13:00:46.456Z,46.50
2018-04-24T13:03:13.407Z,46.50
2018-04-24T13:05:40.035Z,46.50
2018-04-24T13:08:06.698Z,46.90
2018-04-24T13:10:33.899Z,46.50
2018-04-24T13:13:00.175Z,46.40
2018-04-24T13:15:26.792Z,46.30
2018-04-24T13:17:53.685Z,46.40
2018-04-24T13:20:20.118Z,45.90
2018-04-24T13:22:46.867Z,46.20
2018-04-24T13:25:13.617Z,46.10
2018-04-24T13:27:40.356Z,46.10
2018-04-24T13:30:07.107Z,46.00
2018-04-24T13:32:33.707Z,46.10
2018-04-24T13:35:00.710Z,46.10
2018-04-24T13:37:27.390Z,46.10
2018-04-24T13:39:54.102Z,46.10
2018-04-24T13:42:20.839Z,46.30
2018-04-24T13:44:47.585Z,46.30
2018-04-24T13:47:14.020Z,46.40
2018-04-24T13:49:40.609Z,46.50
2018-04-24T13:52:07.215Z,46.60
2018-04-24T13:54:34.265Z,46.60
2018-04-24T13:57:01.009Z,46.60
2018-04-24T13:59:27.292Z,46.60
2018-04-24T14:01:53.886Z,46.60
2018-04-24T14:04:20.632Z,46.60
2018-04-24T14:06:47.380Z,46.60
2018-04-24T14:09:14.698Z,46.60
2018-04-24T14:11:41.367Z,46.70
2018-04-24T14:14:07.926Z,46.60
2018-04-24T14:16:34.671Z,46.70
2018-04-24T14:19:01.724Z,46.70
2018-04-24T14:21:29.086Z,46.70
2018-04-24T14:23:55.672Z,46.70
2018-04-24T14:26:22.281Z,46.70
2018-04-24T14:28:49.123Z,46.80
2018-04-24T14:31:15.969Z,46.80
2018-04-24T14:33:43.107Z,46.80
2018-04-24T14:36:09.562Z,46.90
2018-04-24T14:38:36.308Z,46.90
2018-04-24T14:41:03.055Z,46.90
2018-04-24T14:43:29.328Z,46.90
2018-04-24T14:45:55.776Z,46.90
2018-04-24T14:48:22.226Z,47.00
2018-04-24T14:50:48.813Z,47.00
2018-04-24T14:53:15.557Z,47.00
2018-04-24T14:55:42.139Z,47.00
2018-04-24T14:58:08.583Z,47.00
2018-04-24T15:00:35.181Z,47.10
2018-04-24T15:03:01.927Z,47.00
2018-04-24T15:05:28.685Z,47.00
2018-04-24T15:07:55.731Z,47.00
2018-04-24T15:10:22.176Z,47.10
2018-04-24T15:12:48.913Z,47.00
2018-04-24T15:15:15.663Z,47.00
2018-04-24T15:17:42.405Z,47.10
2018-04-24T15:20:09.160Z,47.10
2018-04-24T15:22:36.009Z,47.00
2018-04-24T15:25:03.188Z,47.10
2018-04-24T15:27:29.698Z,47.00
2018-04-24T15:29:56.455Z,47.10
2018-04-24T15:32:23.398Z,47.10
2018-04-24T15:34:49.781Z,47.00
2018-04-24T15:37:16.232Z,46.80
2018-04-24T15:39:42.695Z,45.50
2018-04-24T15:42:10.811Z,46.20
2018-04-24T15:44:37.537Z,45.50
2018-04-24T15:47:03.977Z,46.20
2018-04-24T15:49:30.799Z,46.70
2018-04-24T15:51:57.759Z,46.30
2018-04-24T15:54:24.518Z,46.30
2018-04-24T15:56:51.265Z,46.40
2018-04-24T15:59:17.770Z,46.30
2018-04-24T16:01:44.757Z,46.20
2018-04-24T16:04:11.501Z,46.20
2018-04-24T16:06:38.251Z,46.20
2018-04-24T16:09:05.556Z,46.20
2018-04-24T16:11:31.896Z,46.20
2018-04-24T16:13:58.188Z,46.20
2018-04-24T16:16:25.514Z,46.30
2018-04-24T16:18:52.128Z,46.30
2018-04-24T16:21:18.744Z,46.40
2018-04-24T16:23:45.478Z,46.30
2018-04-24T16:26:12.225Z,46.30
2018-04-24T16:28:38.968Z,46.30
2018-04-24T16:31:05.712Z,46.40
2018-04-24T16:33:32.404Z,46.40
2018-04-24T16:35:58.897Z,46.50
2018-04-24T16:38:25.838Z,46.40
2018-04-24T16:40:52.387Z,47.00
2018-04-24T16:43:19.133Z,46.40
2018-04-24T16:45:45.818Z,46.40
2018-04-24T16:48:12.667Z,46.40
2018-04-24T16:50:39.375Z,46.40
2018-04-24T16:53:06.328Z,46.50
2018-04-24T16:55:32.866Z,46.50
2018-04-24T16:57:59.925Z,46.40
2018-04-24T17:00:26.290Z,46.50
2018-04-24T17:02:52.798Z,46.40
2018-04-24T17:05:19.236Z,46.50
2018-04-24T17:07:45.858Z,46.50
2018-04-24T17:10:13.343Z,46.60
2018-04-24T17:12:40.088Z,46.50
2018-04-24T17:15:06.835Z,46.50
2018-04-24T17:17:33.427Z,46.60
2018-04-24T17:20:00.099Z,46.50
2018-04-24T17:22:26.353Z,46.50
2018-04-24T17:24:52.899Z,46.60
2018-04-24T17:27:19.499Z,47.20
2018-04-24T17:29:46.087Z,46.60
2018-04-24T17:32:12.367Z,46.60
2018-04-24T17:34:38.971Z,46.60
2018-04-24T17:37:06.240Z,46.60
2018-04-24T17:39:33.067Z,46.60
2018-04-24T17:41:59.816Z,46.70
2018-04-24T17:44:26.640Z,46.60
2018-04-24T17:46:53.310Z,46.70
2018-04-24T17:49:20.057Z,46.70
2018-04-24T17:51:47.372Z,46.70
2018-04-24T17:54:14.175Z,46.60
2018-04-24T17:56:40.920Z,46.60
2018-04-24T17:59:07.655Z,46.60
2018-04-24T18:01:34.402Z,46.70
2018-04-24T18:04:01.148Z,46.70
2018-04-24T18:06:27.894Z,46.70
2018-04-24T18:08:54.175Z,46.70
2018-04-24T18:11:20.685Z,46.70
2018-04-24T18:13:48.140Z,46.70
2018-04-24T18:16:14.883Z,46.70
2018-04-24T18:18:41.626Z,46.70
2018-04-24T18:21:07.910Z,46.70
2018-04-24T18:23:34.505Z,46.70
2018-04-24T18:26:01.252Z,46.70
2018-04-24T18:28:27.997Z,46.70
2018-04-24T18:30:54.955Z,46.70
2018-04-24T18:33:21.491Z,46.70
2018-04-24T18:35:48.242Z,46.70
2018-04-24T18:38:14.516Z,46.70
2018-04-24T18:40:40.966Z,46.70
2018-04-24T18:43:07.268Z,46.70
2018-04-24T18:45:34.194Z,46.70
2018-04-24T18:48:02.572Z,46.80
2018-04-24T18:50:29.334Z,46.70
2018-04-24T18:52:55.765Z,46.80
2018-04-24T18:55:22.352Z,46.80
2018-04-24T18:57:48.950Z,46.80
2018-04-24T19:00:15.537Z,46.80
2018-04-24T19:02:41.972Z,46.80
2018-04-24T19:05:08.575Z,46.80
2018-04-24T19:07:35.504Z,46.80
2018-04-24T19:10:02.988Z,46.80
2018-04-24T19:12:29.734Z,47.40
2018-04-24T19:14:56.683Z,46.80
2018-04-24T19:17:23.400Z,46.80
2018-04-24T19:19:50.897Z,46.90
2018-04-24T19:22:17.944Z,46.80
2018-04-24T19:24:44.692Z,46.80
2018-04-24T19:27:11.139Z,46.80
2018-04-24T19:29:37.574Z,46.80
2018-04-24T19:34:36.902Z,46.80
2018-04-24T19:37:03.828Z,46.90
2018-04-24T19:39:31.616Z,46.80
2018-04-24T19:41:58.208Z,46.80
2018-04-24T19:44:24.801Z,46.50
2018-04-24T19:46:51.548Z,46.10
2018-04-24T19:49:18.934Z,46.10
2018-04-24T19:51:45.658Z,46.00
2018-04-24T19:54:12.403Z,45.80
2018-04-24T19:56:39.146Z,45.80
2018-04-24T19:59:05.588Z,45.60
2018-04-24T20:01:32.339Z,45.50
2018-04-24T20:03:59.008Z,45.40
2018-04-24T20:06:25.522Z,45.50
2018-04-24T20:08:52.272Z,45.30
2018-04-24T20:11:18.540Z,45.40
2018-04-24T20:13:45.231Z,45.30
2018-04-24T20:16:11.922Z,45.70
2018-04-24T20:18:38.636Z,45.60
2018-04-24T20:21:05.383Z,45.60
2018-04-24T20:23:32.145Z,45.90
2018-04-24T20:25:58.880Z,46.60
2018-04-24T20:28:25.624Z,45.90
2018-04-24T20:30:52.367Z,46.20
2018-04-24T20:33:19.113Z,46.20
2018-04-24T20:35:45.716Z,46.20
2018-04-24T20:38:12.434Z,46.20
2018-04-24T20:40:39.044Z,46.10
2018-04-24T20:43:06.100Z,46.60
2018-04-24T20:45:33.163Z,46.50
2018-04-24T20:47:59.899Z,46.30
2018-04-24T20:50:27.216Z,46.40
2018-04-24T20:52:53.695Z,46.80
2018-04-24T20:55:21.976Z,46.60
2018-04-24T20:57:48.725Z,46.60
2018-04-24T21:00:15.777Z,46.60
2018-04-24T21:02:42.524Z,46.30
2018-04-24T21:05:09.273Z,47.00
2018-04-24T21:07:36.214Z,47.10
2018-04-24T21:10:02.608Z,47.70
2018-04-24T21:12:29.201Z,47.10
2018-04-24T21:14:55.950Z,47.10
2018-04-24T21:17:22.700Z,47.10
2018-04-24T21:19:49.442Z,47.30
2018-04-24T21:22:16.190Z,47.20
2018-04-24T21:24:42.938Z,47.20
2018-04-24T21:27:09.984Z,47.30
2018-04-24T21:29:36.596Z,47.40
2018-04-24T21:32:04.095Z,47.50
2018-04-24T21:34:30.692Z,47.80
2018-04-24T21:36:57.280Z,47.60
2018-04-24T21:39:24.221Z,47.70
2018-04-24T21:41:50.527Z,47.70
2018-04-24T21:44:17.082Z,47.70
2018-04-24T21:46:44.412Z,47.70
2018-04-24T21:49:11.010Z,47.60
2018-04-24T21:51:37.757Z,47.80
2018-04-24T21:54:04.502Z,47.80
2018-04-24T21:56:31.692Z,47.80
2018-04-24T21:58:58.167Z,47.70
2018-04-24T22:01:25.359Z,47.90
2018-04-24T22:03:52.098Z,47.80
2018-04-24T22:06:19.060Z,47.80
2018-04-24T22:08:45.596Z,48.00
2018-04-24T22:11:12.346Z,47.90
2018-04-24T22:13:39.086Z,47.90
2018-04-24T22:16:06.059Z,48.70
2018-04-24T22:18:32.735Z,48.10
2018-04-24T22:20:59.333Z,48.20
2018-04-24T22:23:25.764Z,48.40
2018-04-24T22:25:52.511Z,48.60
